^^
Station Historical Data
Daily Summary for April 26, 2017 Units:  Both    English   Metric
« Previous Day
Next Day »
Daily Weekly Monthly Yearly Custom
  High: Low: Average:
Temperature: 74.5 °F /  23.6 °C 48.0 °F /  8.9 °C 60.1 °F /  15.6 °C
Dew Point: 52.2 °F /  11.2 °C 45.7 °F /  7.6 °C 48.2 °F /  9 °C
Humidity: 94% 37% 68%
Wind Speed: 6.0mph /  9.7km/h - 1mph /  1.6km/h
Wind Gust: 11.0mph /  17.7km/h - -
Wind- - South
Pressure: 30.08 in /  1018.5 hPa 29.95 in /  1014.1 hPa -
Precipitation: 0.00 in /  0 mm    
Historical Graphs
 
 
Tabular Data for April 26, 2017
Time Temperature Dew Point Pressure Wind Wind Speed Wind Gust Humidity Rainfall Rate (Hourly) solar Conditions
00:05 51.4 °F /  10.8 °C 48.9 °F /  9.4 °C 30.01in /  1016.1hPa Calm   1.0mph /  1.6km/h 91% 0.00in /  0mm 0.0 W/m2
00:11 51.4 °F /  10.8 °C 48.9 °F /  9.4 °C 30.01in /  1016.1hPa Calm     91% 0.00in /  0mm 0.0 W/m2
00:17 51.3 °F /  10.7 °C 48.7 °F /  9.3 °C 30.01in /  1016.1hPa Calm   1.0mph /  1.6km/h 91% 0.00in /  0mm 0.0 W/m2
00:23 51.3 °F /  10.7 °C 48.7 °F /  9.3 °C 30.01in /  1016.1hPa Calm   2.0mph /  3.2km/h 91% 0.00in /  0mm 0.0 W/m2
00:29 51.3 °F /  10.7 °C 48.7 °F /  9.3 °C 30.01in /  1016.1hPa Calm   2.0mph /  3.2km/h 91% 0.00in /  0mm 0.0 W/m2
00:35 51.3 °F /  10.7 °C 48.7 °F /  9.3 °C 30.01in /  1016.1hPa Calm   3.0mph /  4.8km/h 91% 0.00in /  0mm 0.0 W/m2
00:41 51.3 °F /  10.7 °C 48.7 °F /  9.3 °C 30.01in /  1016.1hPa Calm     91% 0.00in /  0mm 0.0 W/m2
00:48 51.3 °F /  10.7 °C 48.7 °F /  9.3 °C 30.01in /  1016.1hPa Calm     91% 0.00in /  0mm 0.0 W/m2
00:54 51.1 °F /  10.6 °C 48.6 °F /  9.2 °C 30.01in /  1016.1hPa Calm     91% 0.00in /  0mm 0.0 W/m2
01:00 51.1 °F /  10.6 °C 48.6 °F /  9.2 °C 30.01in /  1016.1hPa Calm   1.0mph /  1.6km/h 91% 0.00in /  0mm 0.0 W/m2
01:06 51.1 °F /  10.6 °C 48.6 °F /  9.2 °C 30.01in /  1016.1hPa Calm   1.0mph /  1.6km/h 91% 0.00in /  0mm 0.0 W/m2
01:12 50.9 °F /  10.5 °C 48.4 °F /  9.1 °C 30.01in /  1016.1hPa Calm   1.0mph /  1.6km/h 91% 0.00in /  0mm 0.0 W/m2
01:18 50.7 °F /  10.4 °C 48.2 °F /  9 °C 30.01in /  1016.1hPa Calm   1.0mph /  1.6km/h 91% 0.00in /  0mm 0.0 W/m2
01:25 50.7 °F /  10.4 °C 48.2 °F /  9 °C 30.00in /  1015.8hPa Calm     91% 0.00in /  0mm 0.0 W/m2
01:31 50.5 °F /  10.3 °C 48.0 °F /  8.9 °C 30.00in /  1015.8hPa Calm     91% 0.00in /  0mm 0.0 W/m2
01:37 50.5 °F /  10.3 °C 48.0 °F /  8.9 °C 30.00in /  1015.8hPa Calm     91% 0.00in /  0mm 0.0 W/m2
01:43 50.4 °F /  10.2 °C 47.8 °F /  8.8 °C 30.00in /  1015.8hPa Calm     91% 0.00in /  0mm 0.0 W/m2
01:49 50.2 °F /  10.1 °C 47.7 °F /  8.7 °C 30.00in /  1015.8hPa Calm     91% 0.00in /  0mm 0.0 W/m2
01:55 50.2 °F /  10.1 °C 47.7 °F /  8.7 °C 30.00in /  1015.8hPa Calm     91% 0.00in /  0mm 0.0 W/m2
02:01 50.0 °F /  10 °C 47.5 °F /  8.6 °C 30.00in /  1015.8hPa Calm     91% 0.00in /  0mm 0.0 W/m2
02:08 50.0 °F /  10 °C 47.5 °F /  8.6 °C 30.00in /  1015.8hPa Calm     91% 0.00in /  0mm 0.0 W/m2
02:14 49.8 °F /  9.9 °C 47.3 °F /  8.5 °C 30.01in /  1016.1hPa Calm     91% 0.00in /  0mm 0.0 W/m2
02:20 49.8 °F /  9.9 °C 47.3 °F /  8.5 °C 30.01in /  1016.1hPa Calm     91% 0.00in /  0mm 0.0 W/m2
02:26 49.6 °F /  9.8 °C 47.1 °F /  8.4 °C 30.01in /  1016.1hPa Calm     91% 0.00in /  0mm 0.0 W/m2
02:32 49.5 °F /  9.7 °C 46.9 °F /  8.3 °C 30.01in /  1016.1hPa Calm   1.0mph /  1.6km/h 91% 0.00in /  0mm 0.0 W/m2
02:38 49.5 °F /  9.7 °C 47.3 °F /  8.5 °C 30.01in /  1016.1hPa Calm     92% 0.00in /  0mm 0.0 W/m2
02:44 49.3 °F /  9.6 °C 47.1 °F /  8.4 °C 30.01in /  1016.1hPa Calm   1.0mph /  1.6km/h 92% 0.00in /  0mm 0.0 W/m2
02:51 49.5 °F /  9.7 °C 47.3 °F /  8.5 °C 30.01in /  1016.1hPa East 2.0mph /  3.2km/h 2.0mph /  3.2km/h 92% 0.00in /  0mm 0.0 W/m2
02:57 49.5 °F /  9.7 °C 47.3 °F /  8.5 °C 30.01in /  1016.1hPa Calm   3.0mph /  4.8km/h 92% 0.00in /  0mm 0.0 W/m2
03:03 49.5 °F /  9.7 °C 47.3 °F /  8.5 °C 30.01in /  1016.1hPa ENE 0.9mph /  1.4km/h 3.0mph /  4.8km/h 92% 0.00in /  0mm 0.0 W/m2
03:09 49.5 °F /  9.7 °C 47.3 °F /  8.5 °C 30.01in /  1016.1hPa Calm   3.0mph /  4.8km/h 92% 0.00in /  0mm 0.0 W/m2
03:15 49.5 °F /  9.7 °C 47.3 °F /  8.5 °C 30.01in /  1016.1hPa ENE 0.9mph /  1.4km/h 2.0mph /  3.2km/h 92% 0.00in /  0mm 0.0 W/m2
03:21 49.5 °F /  9.7 °C 47.3 °F /  8.5 °C 30.01in /  1016.1hPa Calm   2.0mph /  3.2km/h 92% 0.00in /  0mm 0.0 W/m2
03:27 49.3 °F /  9.6 °C 47.1 °F /  8.4 °C 30.01in /  1016.1hPa Calm   2.0mph /  3.2km/h 92% 0.00in /  0mm 0.0 W/m2
03:34 49.3 °F /  9.6 °C 47.1 °F /  8.4 °C 30.01in /  1016.1hPa Calm   1.0mph /  1.6km/h 92% 0.00in /  0mm 0.0 W/m2
03:40 49.3 °F /  9.6 °C 47.1 °F /  8.4 °C 30.01in /  1016.1hPa Calm   4.0mph /  6.4km/h 92% 0.00in /  0mm 0.0 W/m2
03:46 49.3 °F /  9.6 °C 47.1 °F /  8.4 °C 30.01in /  1016.1hPa Calm   2.0mph /  3.2km/h 92% 0.00in /  0mm 0.0 W/m2
03:52 49.1 °F /  9.5 °C 46.9 °F /  8.3 °C 30.02in /  1016.5hPa Calm   1.0mph /  1.6km/h 92% 0.00in /  0mm 0.0 W/m2
03:58 49.1 °F /  9.5 °C 46.9 °F /  8.3 °C 30.02in /  1016.5hPa Calm   1.0mph /  1.6km/h 92% 0.00in /  0mm 0.0 W/m2
04:04 48.9 °F /  9.4 °C 46.8 °F /  8.2 °C 30.02in /  1016.5hPa Calm   1.0mph /  1.6km/h 92% 0.00in /  0mm 0.0 W/m2
04:10 49.1 °F /  9.5 °C 46.9 °F /  8.3 °C 30.02in /  1016.5hPa Calm   1.0mph /  1.6km/h 92% 0.00in /  0mm 0.0 W/m2
04:16 49.1 °F /  9.5 °C 46.9 °F /  8.3 °C 30.03in /  1016.8hPa Calm   2.0mph /  3.2km/h 92% 0.00in /  0mm 0.0 W/m2
04:22 49.3 °F /  9.6 °C 47.1 °F /  8.4 °C 30.03in /  1016.8hPa East 0.9mph /  1.4km/h 3.0mph /  4.8km/h 92% 0.00in /  0mm 0.0 W/m2
04:28 49.1 °F /  9.5 °C 46.6 °F /  8.1 °C 30.03in /  1016.8hPa Calm   1.0mph /  1.6km/h 91% 0.00in /  0mm 0.0 W/m2
04:35 48.9 °F /  9.4 °C 46.4 °F /  8 °C 30.03in /  1016.8hPa Calm   2.0mph /  3.2km/h 91% 0.00in /  0mm 0.0 W/m2
04:41 48.9 °F /  9.4 °C 46.4 °F /  8 °C 30.03in /  1016.8hPa East 0.9mph /  1.4km/h 2.0mph /  3.2km/h 91% 0.00in /  0mm 0.0 W/m2
04:47 48.7 °F /  9.3 °C 46.6 °F /  8.1 °C 30.04in /  1017.2hPa ESE 2.0mph /  3.2km/h 3.0mph /  4.8km/h 92% 0.00in /  0mm 0.0 W/m2
04:53 48.7 °F /  9.3 °C 46.6 °F /  8.1 °C 30.04in /  1017.2hPa Calm   2.0mph /  3.2km/h 92% 0.00in /  0mm 0.0 W/m2
04:59 48.6 °F /  9.2 °C 46.4 °F /  8 °C 30.04in /  1017.2hPa Calm   2.0mph /  3.2km/h 92% 0.00in /  0mm 0.0 W/m2
05:06 48.6 °F /  9.2 °C 46.4 °F /  8 °C 30.04in /  1017.2hPa East 0.9mph /  1.4km/h 3.0mph /  4.8km/h 92% 0.00in /  0mm 0.0 W/m2
05:12 48.6 °F /  9.2 °C 46.4 °F /  8 °C 30.04in /  1017.2hPa Calm   3.0mph /  4.8km/h 92% 0.00in /  0mm 0.0 W/m2
05:18 48.4 °F /  9.1 °C 46.2 °F /  7.9 °C 30.04in /  1017.2hPa East 0.9mph /  1.4km/h 1.0mph /  1.6km/h 92% 0.00in /  0mm 0.0 W/m2
05:24 48.2 °F /  9 °C 46.0 °F /  7.8 °C 30.04in /  1017.2hPa Calm   1.0mph /  1.6km/h 92% 0.00in /  0mm 0.0 W/m2
05:30 48.0 °F /  8.9 °C 45.9 °F /  7.7 °C 30.04in /  1017.2hPa ENE 0.9mph /  1.4km/h 1.0mph /  1.6km/h 92% 0.00in /  0mm 0.0 W/m2
05:36 48.0 °F /  8.9 °C 45.9 °F /  7.7 °C 30.05in /  1017.5hPa Calm   1.0mph /  1.6km/h 92% 0.00in /  0mm 0.0 W/m2
05:43 48.0 °F /  8.9 °C 45.9 °F /  7.7 °C 30.05in /  1017.5hPa East 0.9mph /  1.4km/h 1.0mph /  1.6km/h 92% 0.00in /  0mm 0.0 W/m2
05:49 48.0 °F /  8.9 °C 45.9 °F /  7.7 °C 30.05in /  1017.5hPa East 2.0mph /  3.2km/h 2.0mph /  3.2km/h 92% 0.00in /  0mm 0.0 W/m2
05:55 48.0 °F /  8.9 °C 46.0 °F /  7.8 °C 30.05in /  1017.5hPa Calm   2.0mph /  3.2km/h 93% 0.00in /  0mm 0.0 W/m2
06:01 48.0 °F /  8.9 °C 46.0 °F /  7.8 °C 30.05in /  1017.5hPa Calm   1.0mph /  1.6km/h 93% 0.00in /  0mm 0.0 W/m2
06:07 48.0 °F /  8.9 °C 46.0 °F /  7.8 °C 30.05in /  1017.5hPa Calm   2.0mph /  3.2km/h 93% 0.00in /  0mm 0.0 W/m2
06:13 48.2 °F /  9 °C 46.2 °F /  7.9 °C 30.05in /  1017.5hPa Calm   1.0mph /  1.6km/h 93% 0.00in /  0mm 5.0 W/m2
06:19 48.2 °F /  9 °C 46.2 °F /  7.9 °C 30.06in /  1017.8hPa Calm     93% 0.00in /  0mm 11.0 W/m2
06:25 48.4 °F /  9.1 °C 46.4 °F /  8 °C 30.06in /  1017.8hPa Calm     93% 0.00in /  0mm 16.0 W/m2
06:32 48.4 °F /  9.1 °C 46.4 °F /  8 °C 30.06in /  1017.8hPa Calm     93% 0.00in /  0mm 25.0 W/m2
06:38 48.6 °F /  9.2 °C 46.6 °F /  8.1 °C 30.06in /  1017.8hPa Calm     93% 0.00in /  0mm 32.0 W/m2
06:44 48.7 °F /  9.3 °C 47.1 °F /  8.4 °C 30.06in /  1017.8hPa Calm     94% 0.00in /  0mm 39.0 W/m2
06:50 49.3 °F /  9.6 °C 47.7 °F /  8.7 °C 30.06in /  1017.8hPa Calm     94% 0.00in /  0mm 46.0 W/m2
06:56 49.5 °F /  9.7 °C 47.8 °F /  8.8 °C 30.07in /  1018.2hPa Calm     94% 0.00in /  0mm 53.0 W/m2
07:08 50.7 °F /  10.4 °C 49.1 °F /  9.5 °C 30.07in /  1018.2hPa Calm     94% 0.00in /  0mm 69.0 W/m2
07:15 51.3 °F /  10.7 °C 49.6 °F /  9.8 °C 30.07in /  1018.2hPa Calm     94% 0.00in /  0mm 77.0 W/m2
07:21 52.0 °F /  11.1 °C 50.0 °F /  10 °C 30.07in /  1018.2hPa ESE 0.9mph /  1.4km/h 1.0mph /  1.6km/h 93% 0.00in /  0mm 93.0 W/m2
07:27 52.5 °F /  11.4 °C 50.2 °F /  10.1 °C 30.07in /  1018.2hPa Calm     92% 0.00in /  0mm 105.0 W/m2
07:39 54.0 °F /  12.2 °C 50.2 °F /  10.1 °C 30.08in /  1018.5hPa Calm   3.0mph /  4.8km/h 87% 0.00in /  0mm 120.0 W/m2
07:45 54.7 °F /  12.6 °C 50.0 °F /  10 °C 30.08in /  1018.5hPa NE 2.9mph /  4.7km/h 4.0mph /  6.4km/h 84% 0.00in /  0mm 132.0 W/m2
07:51 55.2 °F /  12.9 °C 49.5 °F /  9.7 °C 30.08in /  1018.5hPa Calm   5.0mph /  8km/h 81% 0.00in /  0mm 139.0 W/m2
07:57 56.1 °F /  13.4 °C 50.0 °F /  10 °C 30.07in /  1018.2hPa Calm   2.0mph /  3.2km/h 80% 0.00in /  0mm 130.0 W/m2
08:04 56.8 °F /  13.8 °C 50.4 °F /  10.2 °C 30.08in /  1018.5hPa East 0.9mph /  1.4km/h 3.0mph /  4.8km/h 79% 0.00in /  0mm 116.0 W/m2
08:10 57.6 °F /  14.2 °C 50.0 °F /  10 °C 30.07in /  1018.2hPa Calm   4.0mph /  6.4km/h 76% 0.00in /  0mm 102.0 W/m2
08:16 58.3 °F /  14.6 °C 50.4 °F /  10.2 °C 30.07in /  1018.2hPa NNW 2.9mph /  4.7km/h 3.0mph /  4.8km/h 75% 0.00in /  0mm 84.0 W/m2
08:22 58.6 °F /  14.8 °C 50.0 °F /  10 °C 30.07in /  1018.2hPa North 0.9mph /  1.4km/h 3.0mph /  4.8km/h 73% 0.00in /  0mm 58.0 W/m2
08:28 59.4 °F /  15.2 °C 50.7 °F /  10.4 °C 30.07in /  1018.2hPa NNE 4.0mph /  6.4km/h 4.0mph /  6.4km/h 73% 0.00in /  0mm 441.0 W/m2
08:34 60.4 °F /  15.8 °C 51.1 °F /  10.6 °C 30.08in /  1018.5hPa NNW 2.9mph /  4.7km/h 4.0mph /  6.4km/h 71% 0.00in /  0mm 475.0 W/m2
08:44 62.1 °F /  16.7 °C 50.5 °F /  10.3 °C 30.08in /  1018.5hPa NNW 4.0mph /  6.4km/h 7.0mph /  11.3km/h 66% 0.00in /  0mm 527.0 W/m2
08:51 63.0 °F /  17.2 °C 51.1 °F /  10.6 °C 30.08in /  1018.5hPa NNE 2.0mph /  3.2km/h 8.0mph /  12.9km/h 65% 0.00in /  0mm 545.0 W/m2
08:57 63.5 °F /  17.5 °C 51.4 °F /  10.8 °C 30.08in /  1018.5hPa NNW 4.0mph /  6.4km/h 5.0mph /  8km/h 65% 0.00in /  0mm 564.0 W/m2
09:03 64.0 °F /  17.8 °C 51.3 °F /  10.7 °C 30.08in /  1018.5hPa Calm   1.0mph /  1.6km/h 63% 0.00in /  0mm 580.0 W/m2
09:09 64.6 °F /  18.1 °C 51.6 °F /  10.9 °C 30.08in /  1018.5hPa Calm   3.0mph /  4.8km/h 63% 0.00in /  0mm 599.0 W/m2
09:15 65.3 °F /  18.5 °C 51.1 °F /  10.6 °C 30.08in /  1018.5hPa NNE 2.9mph /  4.7km/h 4.0mph /  6.4km/h 60% 0.00in /  0mm 617.0 W/m2
09:21 66.0 °F /  18.9 °C 51.3 °F /  10.7 °C 30.08in /  1018.5hPa North 4.0mph /  6.4km/h 4.0mph /  6.4km/h 59% 0.00in /  0mm 631.0 W/m2
09:27 66.4 °F /  19.1 °C 51.6 °F /  10.9 °C 30.07in /  1018.2hPa North 0.9mph /  1.4km/h 4.0mph /  6.4km/h 59% 0.00in /  0mm 649.0 W/m2
09:33 66.7 °F /  19.3 °C 52.0 °F /  11.1 °C 30.07in /  1018.2hPa Calm   2.0mph /  3.2km/h 59% 0.00in /  0mm 668.0 W/m2
09:40 67.1 °F /  19.5 °C 51.4 °F /  10.8 °C 30.07in /  1018.2hPa NNE 2.9mph /  4.7km/h 7.0mph /  11.3km/h 57% 0.00in /  0mm 677.0 W/m2
09:46 67.3 °F /  19.6 °C 51.4 °F /  10.8 °C 30.07in /  1018.2hPa ESE 4.0mph /  6.4km/h 5.0mph /  8km/h 57% 0.00in /  0mm 691.0 W/m2
09:52 67.5 °F /  19.7 °C 52.2 °F /  11.2 °C 30.07in /  1018.2hPa NE 0.9mph /  1.4km/h 5.0mph /  8km/h 58% 0.00in /  0mm 700.0 W/m2
09:58 67.6 °F /  19.8 °C 51.4 °F /  10.8 °C 30.06in /  1017.8hPa West 2.0mph /  3.2km/h 4.0mph /  6.4km/h 56% 0.00in /  0mm 715.0 W/m2
10:04 68.0 °F /  20 °C 51.8 °F /  11 °C 30.06in /  1017.8hPa NW 0.9mph /  1.4km/h 1.0mph /  1.6km/h 56% 0.00in /  0mm 728.0 W/m2
10:10 68.5 °F /  20.3 °C 51.8 °F /  11 °C 30.06in /  1017.8hPa Calm   7.0mph /  11.3km/h 55% 0.00in /  0mm 737.0 W/m2
10:16 69.1 °F /  20.6 °C 51.8 °F /  11 °C 30.05in /  1017.5hPa Calm   3.0mph /  4.8km/h 54% 0.00in /  0mm 759.0 W/m2
10:23 69.4 °F /  20.8 °C 51.6 °F /  10.9 °C 30.05in /  1017.5hPa Calm   4.0mph /  6.4km/h 53% 0.00in /  0mm 761.0 W/m2
10:29 69.8 °F /  21 °C 52.0 °F /  11.1 °C 30.05in /  1017.5hPa North 2.9mph /  4.7km/h 5.0mph /  8km/h 53% 0.00in /  0mm 766.0 W/m2
10:35 70.0 °F /  21.1 °C 52.0 °F /  11.1 °C 30.05in /  1017.5hPa NW 4.0mph /  6.4km/h 5.0mph /  8km/h 53% 0.00in /  0mm 780.0 W/m2
10:41 70.2 °F /  21.2 °C 51.8 °F /  11 °C 30.04in /  1017.2hPa Calm   2.0mph /  3.2km/h 52% 0.00in /  0mm 823.0 W/m2
10:47 70.3 °F /  21.3 °C 51.4 °F /  10.8 °C 30.04in /  1017.2hPa WNW 0.9mph /  1.4km/h 5.0mph /  8km/h 51% 0.00in /  0mm 824.0 W/m2
10:53 70.5 °F /  21.4 °C 51.4 °F /  10.8 °C 30.04in /  1017.2hPa NNW 4.0mph /  6.4km/h 5.0mph /  8km/h 51% 0.00in /  0mm 823.0 W/m2
10:59 71.1 °F /  21.7 °C 50.9 °F /  10.5 °C 30.03in /  1016.8hPa SW 4.0mph /  6.4km/h 5.0mph /  8km/h 49% 0.00in /  0mm 846.0 W/m2
11:06 71.2 °F /  21.8 °C 50.5 °F /  10.3 °C 30.03in /  1016.8hPa NW 0.9mph /  1.4km/h 5.0mph /  8km/h 48% 0.00in /  0mm 846.0 W/m2
11:12 71.6 °F /  22 °C 50.9 °F /  10.5 °C 30.03in /  1016.8hPa Calm   7.0mph /  11.3km/h 48% 0.00in /  0mm 868.0 W/m2
11:24 72.1 °F /  22.3 °C 50.2 °F /  10.1 °C 30.02in /  1016.5hPa North 4.9mph /  7.9km/h 5.0mph /  8km/h 46% 0.00in /  0mm 861.0 W/m2
11:30 72.3 °F /  22.4 °C 50.4 °F /  10.2 °C 30.02in /  1016.5hPa North 4.0mph /  6.4km/h 8.0mph /  12.9km/h 46% 0.00in /  0mm 877.0 W/m2
11:36 72.5 °F /  22.5 °C 50.0 °F /  10 °C 30.01in /  1016.1hPa NW 4.9mph /  7.9km/h 7.0mph /  11.3km/h 45% 0.00in /  0mm 677.0 W/m2
11:42 72.3 °F /  22.4 °C 49.8 °F /  9.9 °C 30.01in /  1016.1hPa NW 2.0mph /  3.2km/h 4.0mph /  6.4km/h 45% 0.00in /  0mm 188.0 W/m2
11:48 72.1 °F /  22.3 °C 49.1 °F /  9.5 °C 30.01in /  1016.1hPa West 0.9mph /  1.4km/h 5.0mph /  8km/h 44% 0.00in /  0mm 176.0 W/m2
11:54 71.4 °F /  21.9 °C 49.6 °F /  9.8 °C 30.00in /  1015.8hPa NNW 4.0mph /  6.4km/h 8.0mph /  12.9km/h 46% 0.00in /  0mm 471.0 W/m2
12:01 71.4 °F /  21.9 °C 48.9 °F /  9.4 °C 30.00in /  1015.8hPa Calm   3.0mph /  4.8km/h 45% 0.00in /  0mm 977.0 W/m2
12:07 72.3 °F /  22.4 °C 49.8 °F /  9.9 °C 29.99in /  1015.5hPa NW 2.0mph /  3.2km/h 10.0mph /  16.1km/h 45% 0.00in /  0mm 265.0 W/m2
12:13 71.6 °F /  22 °C 48.6 °F /  9.2 °C 29.99in /  1015.5hPa NNW 2.9mph /  4.7km/h 7.0mph /  11.3km/h 44% 0.00in /  0mm 318.0 W/m2
12:19 71.2 °F /  21.8 °C 49.5 °F /  9.7 °C 29.99in /  1015.5hPa NNW 4.0mph /  6.4km/h 5.0mph /  8km/h 46% 0.00in /  0mm 374.0 W/m2
12:25 71.2 °F /  21.8 °C 48.7 °F /  9.3 °C 29.98in /  1015.1hPa NE 0.9mph /  1.4km/h 5.0mph /  8km/h 45% 0.00in /  0mm 385.0 W/m2
12:31 71.6 °F /  22 °C 49.1 °F /  9.5 °C 29.98in /  1015.1hPa NNW 4.0mph /  6.4km/h 9.0mph /  14.5km/h 45% 0.00in /  0mm 1004.0 W/m2
12:37 71.8 °F /  22.1 °C 49.8 °F /  9.9 °C 29.98in /  1015.1hPa Calm   5.0mph /  8km/h 46% 0.00in /  0mm 232.0 W/m2
12:44 71.2 °F /  21.8 °C 49.5 °F /  9.7 °C 29.98in /  1015.1hPa Calm   1.0mph /  1.6km/h 46% 0.00in /  0mm 241.0 W/m2
12:50 71.4 °F /  21.9 °C 48.9 °F /  9.4 °C 29.98in /  1015.1hPa North 2.0mph /  3.2km/h 8.0mph /  12.9km/h 45% 0.00in /  0mm 972.0 W/m2
12:56 72.0 °F /  22.2 °C 48.9 °F /  9.4 °C 29.97in /  1014.8hPa NNW 4.0mph /  6.4km/h 4.0mph /  6.4km/h 44% 0.00in /  0mm 939.0 W/m2
13:02 72.5 °F /  22.5 °C 48.7 °F /  9.3 °C 29.98in /  1015.1hPa NNE 4.0mph /  6.4km/h 5.0mph /  8km/h 43% 0.00in /  0mm 213.0 W/m2
13:08 72.1 °F /  22.3 °C 49.1 °F /  9.5 °C 29.97in /  1014.8hPa NNE 2.9mph /  4.7km/h 4.0mph /  6.4km/h 44% 0.00in /  0mm 283.0 W/m2
13:14 71.6 °F /  22 °C 47.8 °F /  8.8 °C 29.97in /  1014.8hPa East 2.9mph /  4.7km/h 11.0mph /  17.7km/h 43% 0.00in /  0mm 547.0 W/m2
13:20 72.0 °F /  22.2 °C 48.2 °F /  9 °C 29.97in /  1014.8hPa Calm   5.0mph /  8km/h 43% 0.00in /  0mm 867.0 W/m2
13:26 72.7 °F /  22.6 °C 48.2 °F /  9 °C 29.97in /  1014.8hPa NW 2.0mph /  3.2km/h 5.0mph /  8km/h 42% 0.00in /  0mm 156.0 W/m2
13:32 72.3 °F /  22.4 °C 48.6 °F /  9.2 °C 29.96in /  1014.4hPa Calm   2.0mph /  3.2km/h 43% 0.00in /  0mm 163.0 W/m2
13:39 72.0 °F /  22.2 °C 48.2 °F /  9 °C 29.96in /  1014.4hPa Calm   4.0mph /  6.4km/h 43% 0.00in /  0mm 304.0 W/m2
13:45 71.8 °F /  22.1 °C 48.0 °F /  8.9 °C 29.96in /  1014.4hPa North 2.9mph /  4.7km/h 7.0mph /  11.3km/h 43% 0.00in /  0mm 181.0 W/m2
13:51 71.4 °F /  21.9 °C 47.1 °F /  8.4 °C 29.96in /  1014.4hPa Calm   4.0mph /  6.4km/h 42% 0.00in /  0mm 229.0 W/m2
13:57 71.8 °F /  22.1 °C 47.5 °F /  8.6 °C 29.96in /  1014.4hPa East 2.0mph /  3.2km/h 3.0mph /  4.8km/h 42% 0.00in /  0mm 796.0 W/m2
14:03 72.1 °F /  22.3 °C 47.8 °F /  8.8 °C 29.96in /  1014.4hPa North 0.9mph /  1.4km/h 4.0mph /  6.4km/h 42% 0.00in /  0mm 791.0 W/m2
14:09 72.7 °F /  22.6 °C 48.9 °F /  9.4 °C 29.96in /  1014.4hPa Calm   2.0mph /  3.2km/h 43% 0.00in /  0mm 758.0 W/m2
14:15 73.4 °F /  23 °C 48.2 °F /  9 °C 29.96in /  1014.4hPa West 2.0mph /  3.2km/h 7.0mph /  11.3km/h 41% 0.00in /  0mm 766.0 W/m2
14:22 73.9 °F /  23.3 °C 48.0 °F /  8.9 °C 29.96in /  1014.4hPa NNW 2.9mph /  4.7km/h 5.0mph /  8km/h 40% 0.00in /  0mm 185.0 W/m2
14:28 73.4 °F /  23 °C 48.2 °F /  9 °C 29.96in /  1014.4hPa North 2.0mph /  3.2km/h 5.0mph /  8km/h 41% 0.00in /  0mm 230.0 W/m2
14:34 72.9 °F /  22.7 °C 47.8 °F /  8.8 °C 29.96in /  1014.4hPa NNE 4.0mph /  6.4km/h 7.0mph /  11.3km/h 41% 0.00in /  0mm 171.0 W/m2
14:40 72.1 °F /  22.3 °C 47.8 °F /  8.8 °C 29.96in /  1014.4hPa NW 2.0mph /  3.2km/h 5.0mph /  8km/h 42% 0.00in /  0mm 179.0 W/m2
14:46 72.3 °F /  22.4 °C 48.0 °F /  8.9 °C 29.96in /  1014.4hPa Calm   2.0mph /  3.2km/h 42% 0.00in /  0mm 649.0 W/m2
14:52 73.0 °F /  22.8 °C 47.3 °F /  8.5 °C 29.96in /  1014.4hPa Calm   9.0mph /  14.5km/h 40% 0.00in /  0mm 633.0 W/m2
14:58 73.6 °F /  23.1 °C 47.1 °F /  8.4 °C 29.96in /  1014.4hPa WSW 0.9mph /  1.4km/h 6.0mph /  9.7km/h 39% 0.00in /  0mm 608.0 W/m2
15:04 73.9 °F /  23.3 °C 47.5 °F /  8.6 °C 29.95in /  1014.1hPa NNW 4.9mph /  7.9km/h 7.0mph /  11.3km/h 39% 0.00in /  0mm 577.0 W/m2
15:10 74.1 °F /  23.4 °C 46.9 °F /  8.3 °C 29.96in /  1014.4hPa NW 4.0mph /  6.4km/h 7.0mph /  11.3km/h 38% 0.00in /  0mm 531.0 W/m2
15:16 74.3 °F /  23.5 °C 47.1 °F /  8.4 °C 29.96in /  1014.4hPa NW 4.0mph /  6.4km/h 7.0mph /  11.3km/h 38% 0.00in /  0mm 510.0 W/m2
15:23 74.5 °F /  23.6 °C 46.6 °F /  8.1 °C 29.96in /  1014.4hPa NNE 2.9mph /  4.7km/h 7.0mph /  11.3km/h 37% 0.00in /  0mm 499.0 W/m2
15:29 73.9 °F /  23.3 °C 48.0 °F /  8.9 °C 29.96in /  1014.4hPa NNW 2.0mph /  3.2km/h 5.0mph /  8km/h 40% 0.00in /  0mm 105.0 W/m2
15:35 72.9 °F /  22.7 °C 46.4 °F /  8 °C 29.96in /  1014.4hPa NE 2.0mph /  3.2km/h 5.0mph /  8km/h 39% 0.00in /  0mm 118.0 W/m2
15:41 72.0 °F /  22.2 °C 46.4 °F /  8 °C 29.96in /  1014.4hPa NNW 2.0mph /  3.2km/h 6.0mph /  9.7km/h 40% 0.00in /  0mm 401.0 W/m2
15:47 71.8 °F /  22.1 °C 46.2 °F /  7.9 °C 29.96in /  1014.4hPa North 6.0mph /  9.7km/h 9.0mph /  14.5km/h 40% 0.00in /  0mm 380.0 W/m2
15:53 72.0 °F /  22.2 °C 46.4 °F /  8 °C 29.96in /  1014.4hPa WNW 4.0mph /  6.4km/h 5.0mph /  8km/h 40% 0.00in /  0mm 127.0 W/m2
15:59 72.0 °F /  22.2 °C 45.7 °F /  7.6 °C 29.96in /  1014.4hPa North 2.0mph /  3.2km/h 7.0mph /  11.3km/h 39% 0.00in /  0mm 84.0 W/m2
16:06 71.8 °F /  22.1 °C 46.2 °F /  7.9 °C 29.96in /  1014.4hPa NNW 0.9mph /  1.4km/h 4.0mph /  6.4km/h 40% 0.00in /  0mm 72.0 W/m2
16:12 71.8 °F /  22.1 °C 46.2 °F /  7.9 °C 29.96in /  1014.4hPa NNW 4.0mph /  6.4km/h 5.0mph /  8km/h 40% 0.00in /  0mm 56.0 W/m2
16:18 71.2 °F /  21.8 °C 46.4 °F /  8 °C 29.96in /  1014.4hPa NW 4.9mph /  7.9km/h 6.0mph /  9.7km/h 41% 0.00in /  0mm 46.0 W/m2
16:24 70.9 °F /  21.6 °C 46.6 °F /  8.1 °C 29.96in /  1014.4hPa NNW 4.9mph /  7.9km/h 6.0mph /  9.7km/h 42% 0.00in /  0mm 37.0 W/m2
16:30 70.5 °F /  21.4 °C 46.4 °F /  8 °C 29.96in /  1014.4hPa North 2.0mph /  3.2km/h 7.0mph /  11.3km/h 42% 0.00in /  0mm 30.0 W/m2
16:36 70.0 °F /  21.1 °C 45.9 °F /  7.7 °C 29.97in /  1014.8hPa NNE 4.0mph /  6.4km/h 6.0mph /  9.7km/h 42% 0.00in /  0mm 25.0 W/m2
16:42 69.4 °F /  20.8 °C 46.0 °F /  7.8 °C 29.97in /  1014.8hPa NE 4.0mph /  6.4km/h 6.0mph /  9.7km/h 43% 0.00in /  0mm 21.0 W/m2
16:48 68.9 °F /  20.5 °C 46.0 °F /  7.8 °C 29.97in /  1014.8hPa NNW 0.9mph /  1.4km/h 3.0mph /  4.8km/h 44% 0.00in /  0mm 19.0 W/m2
16:54 68.5 °F /  20.3 °C 46.4 °F /  8 °C 29.97in /  1014.8hPa Calm   1.0mph /  1.6km/h 45% 0.00in /  0mm 19.0 W/m2
17:01 68.4 °F /  20.2 °C 46.8 °F /  8.2 °C 29.97in /  1014.8hPa Calm   2.0mph /  3.2km/h 46% 0.00in /  0mm 18.0 W/m2
17:07 68.2 °F /  20.1 °C 46.6 °F /  8.1 °C 29.97in /  1014.8hPa Calm   1.0mph /  1.6km/h 46% 0.00in /  0mm 16.0 W/m2
17:13 68.0 °F /  20 °C 46.9 °F /  8.3 °C 29.98in /  1015.1hPa NNE 2.9mph /  4.7km/h 7.0mph /  11.3km/h 47% 0.00in /  0mm 12.0 W/m2
17:19 67.6 °F /  19.8 °C 47.3 °F /  8.5 °C 29.98in /  1015.1hPa NNE 2.0mph /  3.2km/h 4.0mph /  6.4km/h 48% 0.00in /  0mm 11.0 W/m2
17:25 67.5 °F /  19.7 °C 47.1 °F /  8.4 °C 29.98in /  1015.1hPa NNE 0.9mph /  1.4km/h 5.0mph /  8km/h 48% 0.00in /  0mm 5.0 W/m2
17:31 67.3 °F /  19.6 °C 46.9 °F /  8.3 °C 29.98in /  1015.1hPa NNW 0.9mph /  1.4km/h 1.0mph /  1.6km/h 48% 0.00in /  0mm 0.0 W/m2
17:37 66.9 °F /  19.4 °C 47.1 °F /  8.4 °C 29.98in /  1015.1hPa NE 2.0mph /  3.2km/h 2.0mph /  3.2km/h 49% 0.00in /  0mm 0.0 W/m2
17:43 66.7 °F /  19.3 °C 46.9 °F /  8.3 °C 29.99in /  1015.5hPa Calm   3.0mph /  4.8km/h 49% 0.00in /  0mm 0.0 W/m2
17:50 66.4 °F /  19.1 °C 47.7 °F /  8.7 °C 29.99in /  1015.5hPa Calm   2.0mph /  3.2km/h 51% 0.00in /  0mm 0.0 W/m2
17:56 66.0 °F /  18.9 °C 47.8 °F /  8.8 °C 29.99in /  1015.5hPa NNE 0.9mph /  1.4km/h 3.0mph /  4.8km/h 52% 0.00in /  0mm 0.0 W/m2
18:02 65.5 °F /  18.6 °C 47.5 °F /  8.6 °C 29.99in /  1015.5hPa Calm   1.0mph /  1.6km/h 52% 0.00in /  0mm 0.0 W/m2
18:08 65.1 °F /  18.4 °C 47.5 °F /  8.6 °C 29.99in /  1015.5hPa Calm   3.0mph /  4.8km/h 53% 0.00in /  0mm 0.0 W/m2
18:14 64.8 °F /  18.2 °C 47.3 °F /  8.5 °C 29.99in /  1015.5hPa Calm   2.0mph /  3.2km/h 53% 0.00in /  0mm 0.0 W/m2
18:20 64.6 °F /  18.1 °C 47.5 °F /  8.6 °C 29.99in /  1015.5hPa Calm     54% 0.00in /  0mm 0.0 W/m2
18:26 64.0 °F /  17.8 °C 47.5 °F /  8.6 °C 29.99in /  1015.5hPa Calm   1.0mph /  1.6km/h 55% 0.00in /  0mm 0.0 W/m2
18:33 63.7 °F /  17.6 °C 48.6 °F /  9.2 °C 29.99in /  1015.5hPa Calm     58% 0.00in /  0mm 0.0 W/m2
18:39 63.1 °F /  17.3 °C 49.1 °F /  9.5 °C 29.99in /  1015.5hPa Calm   1.0mph /  1.6km/h 60% 0.00in /  0mm 0.0 W/m2
18:45 62.8 °F /  17.1 °C 49.6 °F /  9.8 °C 30.00in /  1015.8hPa Calm   3.0mph /  4.8km/h 62% 0.00in /  0mm 0.0 W/m2
18:51 62.2 °F /  16.8 °C 49.5 °F /  9.7 °C 30.00in /  1015.8hPa Calm   1.0mph /  1.6km/h 63% 0.00in /  0mm 0.0 W/m2
18:57 61.9 °F /  16.6 °C 49.6 °F /  9.8 °C 30.00in /  1015.8hPa Calm   1.0mph /  1.6km/h 64% 0.00in /  0mm 0.0 W/m2
19:03 61.5 °F /  16.4 °C 49.3 °F /  9.6 °C 30.00in /  1015.8hPa NE 0.9mph /  1.4km/h 3.0mph /  4.8km/h 64% 0.00in /  0mm 0.0 W/m2
19:09 61.3 °F /  16.3 °C 49.1 °F /  9.5 °C 30.01in /  1016.1hPa Calm   1.0mph /  1.6km/h 64% 0.00in /  0mm 0.0 W/m2
19:16 61.3 °F /  16.3 °C 49.5 °F /  9.7 °C 30.01in /  1016.1hPa Calm     65% 0.00in /  0mm 0.0 W/m2
19:22 61.3 °F /  16.3 °C 49.8 °F /  9.9 °C 30.01in /  1016.1hPa Calm     66% 0.00in /  0mm 0.0 W/m2
19:28 61.2 °F /  16.2 °C 49.3 °F /  9.6 °C 30.01in /  1016.1hPa Calm     65% 0.00in /  0mm 0.0 W/m2
19:34 61.0 °F /  16.1 °C 50.0 °F /  10 °C 30.01in /  1016.1hPa Calm   1.0mph /  1.6km/h 67% 0.00in /  0mm 0.0 W/m2
19:40 60.6 °F /  15.9 °C 49.6 °F /  9.8 °C 30.01in /  1016.1hPa Calm   1.0mph /  1.6km/h 67% 0.00in /  0mm 0.0 W/m2
19:46 60.4 °F /  15.8 °C 49.8 °F /  9.9 °C 30.01in /  1016.1hPa East 0.9mph /  1.4km/h 2.0mph /  3.2km/h 68% 0.00in /  0mm 0.0 W/m2
19:52 60.1 °F /  15.6 °C 49.8 °F /  9.9 °C 30.01in /  1016.1hPa Calm   1.0mph /  1.6km/h 69% 0.00in /  0mm 0.0 W/m2
19:59 59.5 °F /  15.3 °C 49.3 °F /  9.6 °C 30.01in /  1016.1hPa Calm     69% 0.00in /  0mm 0.0 W/m2
20:05 59.2 °F /  15.1 °C 49.5 °F /  9.7 °C 30.01in /  1016.1hPa Calm     70% 0.00in /  0mm 0.0 W/m2
20:11 58.6 °F /  14.8 °C 48.9 °F /  9.4 °C 30.02in /  1016.5hPa Calm     70% 0.00in /  0mm 0.0 W/m2
20:17 58.5 °F /  14.7 °C 49.1 °F /  9.5 °C 30.02in /  1016.5hPa Calm     71% 0.00in /  0mm 0.0 W/m2
20:23 57.9 °F /  14.4 °C 48.9 °F /  9.4 °C 30.02in /  1016.5hPa Calm   1.0mph /  1.6km/h 72% 0.00in /  0mm 0.0 W/m2
20:29 57.6 °F /  14.2 °C 48.9 °F /  9.4 °C 30.02in /  1016.5hPa Calm   1.0mph /  1.6km/h 73% 0.00in /  0mm 0.0 W/m2
20:35 57.4 °F /  14.1 °C 49.1 °F /  9.5 °C 30.02in /  1016.5hPa Calm     74% 0.00in /  0mm 0.0 W/m2
20:41 56.8 °F /  13.8 °C 48.6 °F /  9.2 °C 30.02in /  1016.5hPa Calm   1.0mph /  1.6km/h 74% 0.00in /  0mm 0.0 W/m2
20:48 56.7 °F /  13.7 °C 48.4 °F /  9.1 °C 30.02in /  1016.5hPa Calm   1.0mph /  1.6km/h 74% 0.00in /  0mm 0.0 W/m2
20:54 56.5 °F /  13.6 °C 48.4 °F /  9.1 °C 30.02in /  1016.5hPa East 0.9mph /  1.4km/h 1.0mph /  1.6km/h 74% 0.00in /  0mm 0.0 W/m2
21:00 56.5 °F /  13.6 °C 48.4 °F /  9.1 °C 30.02in /  1016.5hPa Calm   1.0mph /  1.6km/h 74% 0.00in /  0mm 0.0 W/m2
21:06 56.1 °F /  13.4 °C 48.0 °F /  8.9 °C 30.02in /  1016.5hPa Calm   1.0mph /  1.6km/h 74% 0.00in /  0mm 0.0 W/m2
21:12 56.1 °F /  13.4 °C 48.0 °F /  8.9 °C 30.01in /  1016.1hPa Calm   1.0mph /  1.6km/h 74% 0.00in /  0mm 0.0 W/m2
21:18 55.9 °F /  13.3 °C 48.2 °F /  9 °C 30.02in /  1016.5hPa Calm   1.0mph /  1.6km/h 75% 0.00in /  0mm 0.0 W/m2
21:24 55.8 °F /  13.2 °C 47.7 °F /  8.7 °C 30.02in /  1016.5hPa Calm     74% 0.00in /  0mm 0.0 W/m2
21:30 55.8 °F /  13.2 °C 47.7 °F /  8.7 °C 30.01in /  1016.1hPa Calm     74% 0.00in /  0mm 0.0 W/m2
21:43 55.4 °F /  13 °C 47.7 °F /  8.7 °C 30.02in /  1016.5hPa Calm     75% 0.00in /  0mm 0.0 W/m2
21:49 55.2 °F /  12.9 °C 47.5 °F /  8.6 °C 30.02in /  1016.5hPa Calm     75% 0.00in /  0mm 0.0 W/m2
22:01 54.9 °F /  12.7 °C 47.5 °F /  8.6 °C 30.02in /  1016.5hPa Calm     76% 0.00in /  0mm 0.0 W/m2
22:07 54.9 °F /  12.7 °C 47.1 °F /  8.4 °C 30.02in /  1016.5hPa Calm     75% 0.00in /  0mm 0.0 W/m2
22:13 54.7 °F /  12.6 °C 47.3 °F /  8.5 °C 30.01in /  1016.1hPa Calm   1.0mph /  1.6km/h 76% 0.00in /  0mm 0.0 W/m2
22:20 54.7 °F /  12.6 °C 47.3 °F /  8.5 °C 30.01in /  1016.1hPa East 0.9mph /  1.4km/h 1.0mph /  1.6km/h 76% 0.00in /  0mm 0.0 W/m2
22:26 54.3 °F /  12.4 °C 46.9 °F /  8.3 °C 30.01in /  1016.1hPa Calm     76% 0.00in /  0mm 0.0 W/m2
22:32 54.3 °F /  12.4 °C 47.3 °F /  8.5 °C 30.01in /  1016.1hPa Calm     77% 0.00in /  0mm 0.0 W/m2
22:38 54.1 °F /  12.3 °C 47.5 °F /  8.6 °C 30.01in /  1016.1hPa Calm     78% 0.00in /  0mm 0.0 W/m2
22:44 54.0 °F /  12.2 °C 47.3 °F /  8.5 °C 30.01in /  1016.1hPa Calm     78% 0.00in /  0mm 0.0 W/m2
22:50 53.8 °F /  12.1 °C 47.1 °F /  8.4 °C 30.01in /  1016.1hPa Calm     78% 0.00in /  0mm 0.0 W/m2
22:56 53.8 °F /  12.1 °C 47.1 °F /  8.4 °C 30.01in /  1016.1hPa Calm     78% 0.00in /  0mm 0.0 W/m2
23:02 53.4 °F /  11.9 °C 46.8 °F /  8.2 °C 30.01in /  1016.1hPa Calm     78% 0.00in /  0mm 0.0 W/m2
23:08 53.4 °F /  11.9 °C 46.8 °F /  8.2 °C 30.01in /  1016.1hPa Calm     78% 0.00in /  0mm 0.0 W/m2
23:14 53.4 °F /  11.9 °C 46.4 °F /  8 °C 30.01in /  1016.1hPa Calm     77% 0.00in /  0mm 0.0 W/m2
23:20 53.6 °F /  12 °C 46.6 °F /  8.1 °C 30.02in /  1016.5hPa Calm     77% 0.00in /  0mm 0.0 W/m2
23:26 53.6 °F /  12 °C 46.6 °F /  8.1 °C 30.02in /  1016.5hPa Calm     77% 0.00in /  0mm 0.0 W/m2
23:32 53.4 °F /  11.9 °C 46.4 °F /  8 °C 30.02in /  1016.5hPa Calm     77% 0.00in /  0mm 0.0 W/m2
23:39 53.4 °F /  11.9 °C 46.4 °F /  8 °C 30.02in /  1016.5hPa Calm     77% 0.00in /  0mm 0.0 W/m2
23:45 53.2 °F /  11.8 °C 46.6 °F /  8.1 °C 30.02in /  1016.5hPa Calm     78% 0.00in /  0mm 0.0 W/m2
23:51 53.1 °F /  11.7 °C 46.0 °F /  7.8 °C 30.02in /  1016.5hPa Calm   2.0mph /  3.2km/h 77% 0.00in /  0mm 0.0 W/m2
23:57 53.1 °F /  11.7 °C 46.0 °F /  7.8 °C 30.02in /  1016.5hPa NE 0.9mph /  1.4km/h 2.0mph /  3.2km/h 77% 0.00in /  0mm 0.0 W/m2
Olympia, Windhoek, Namibia
Compliments of Weather Underground - 3 mb